createdAt,value
2023-04-13T00:01:11.693Z,9.96
2023-04-13T00:03:39.608Z,9.97
2023-04-13T00:06:11.100Z,10.13
2023-04-13T00:08:38.873Z,9.91
2023-04-13T00:11:07.888Z,9.78
2023-04-13T00:13:41.527Z,9.72
2023-04-13T00:16:13.924Z,9.81
2023-04-13T00:18:41.008Z,9.67
2023-04-13T00:21:08.416Z,9.59
2023-04-13T00:23:36.389Z,9.74
2023-04-13T00:26:03.609Z,9.63
2023-04-13T00:28:30.621Z,9.79
2023-04-13T00:30:59.345Z,9.78
2023-04-13T00:33:26.700Z,9.85
2023-04-13T00:35:53.672Z,9.82
2023-04-13T00:38:20.554Z,9.59
2023-04-13T00:40:47.567Z,9.75
2023-04-13T00:43:15.036Z,9.84
2023-04-13T00:45:43.568Z,9.90
2023-04-13T00:48:11.096Z,9.89
2023-04-13T00:50:39.779Z,9.71
2023-04-13T00:53:10.954Z,9.48
2023-04-13T00:55:42.145Z,9.53
2023-04-13T00:58:09.747Z,9.79
2023-04-13T01:00:43.219Z,9.69
2023-04-13T01:03:11.506Z,9.68
2023-04-13T01:05:51.874Z,9.78
2023-04-13T01:08:36.968Z,9.60
2023-04-13T01:11:19.904Z,9.71
2023-04-13T01:13:56.514Z,9.57
2023-04-13T01:16:33.155Z,9.59
2023-04-13T01:21:54.566Z,9.62
2023-04-13T01:24:41.916Z,9.46
2023-04-13T01:27:20.636Z,9.56
2023-04-13T01:29:50.818Z,9.50
2023-04-13T01:32:18.192Z,9.24
2023-04-13T01:34:45.749Z,9.14
2023-04-13T01:37:13.084Z,9.13
2023-04-13T01:39:41.147Z,9.10
2023-04-13T01:42:19.259Z,9.12
2023-04-13T01:44:49.390Z,8.97
2023-04-13T01:47:20.633Z,9.00
2023-04-13T01:50:25.743Z,9.21
2023-04-13T01:53:08.237Z,9.43
2023-04-13T01:55:42.052Z,9.32
2023-04-13T01:58:13.192Z,9.33
2023-04-13T02:00:41.894Z,9.02
2023-04-13T02:03:13.359Z,8.79
2023-04-13T02:05:40.665Z,8.53
2023-04-13T02:08:09.302Z,8.42
2023-04-13T02:10:42.942Z,8.48
2023-04-13T02:13:10.268Z,8.54
2023-04-13T02:15:38.842Z,8.49
2023-04-13T02:18:07.329Z,8.21
2023-04-13T02:20:45.545Z,8.10
2023-04-13T02:23:15.130Z,8.09
2023-04-13T02:25:47.202Z,8.24
2023-04-13T02:28:17.842Z,8.15
2023-04-13T02:30:47.088Z,7.95
2023-04-13T02:33:14.179Z,7.85
2023-04-13T02:35:41.338Z,7.89
2023-04-13T02:38:10.722Z,7.95
2023-04-13T02:40:38.933Z,7.95
2023-04-13T02:43:29.484Z,7.77
2023-04-13T02:45:58.497Z,7.72
2023-04-13T02:48:30.684Z,7.52
2023-04-13T02:50:57.686Z,7.42
2023-04-13T02:53:29.804Z,7.48
2023-04-13T02:56:02.307Z,7.59
2023-04-13T02:58:31.752Z,7.69
2023-04-13T03:01:02.634Z,7.61
2023-04-13T03:03:30.604Z,7.56
2023-04-13T03:05:58.771Z,7.64
2023-04-13T03:08:37.280Z,7.56
2023-04-13T03:11:11.275Z,7.69
2023-04-13T03:13:47.197Z,7.67
2023-04-13T03:16:17.727Z,7.68
2023-04-13T03:18:45.815Z,7.95
2023-04-13T03:21:14.224Z,7.95
2023-04-13T03:23:49.605Z,7.91
2023-04-13T03:26:17.945Z,7.88
2023-04-13T03:28:44.890Z,7.91
2023-04-13T03:31:12.066Z,7.83
2023-04-13T03:33:39.232Z,7.84
2023-04-13T03:36:08.527Z,7.75
2023-04-13T03:38:37.496Z,7.61
2023-04-13T03:41:04.762Z,7.57
2023-04-13T03:43:33.383Z,7.52
2023-04-13T03:46:07.955Z,7.47
2023-04-13T03:48:35.940Z,7.42
2023-04-13T03:51:05.760Z,7.45
2023-04-13T03:53:44.702Z,7.55
2023-04-13T03:56:11.803Z,7.25
2023-04-13T03:58:39.596Z,7.17
2023-04-13T04:01:08.129Z,7.38
2023-04-13T04:03:44.369Z,7.39
2023-04-13T04:06:11.954Z,7.24
2023-04-13T04:08:43.910Z,7.27
2023-04-13T04:11:22.584Z,7.27
2023-04-13T04:13:49.694Z,7.39
2023-04-13T04:16:16.755Z,7.57
2023-04-13T04:18:49.709Z,7.52
2023-04-13T04:21:21.832Z,7.23
2023-04-13T04:23:49.311Z,7.08
2023-04-13T04:26:17.861Z,7.20
2023-04-13T04:29:02.554Z,6.98
2023-04-13T04:31:36.755Z,7.35
2023-04-13T04:34:06.751Z,7.32
2023-04-13T04:36:36.385Z,7.21
2023-04-13T04:39:04.757Z,7.29
2023-04-13T04:41:39.743Z,7.73
2023-04-13T04:44:09.138Z,7.85
2023-04-13T04:46:41.744Z,7.71
2023-04-13T04:49:14.052Z,7.58
2023-04-13T04:51:41.257Z,7.67
2023-04-13T04:54:09.544Z,7.69
2023-04-13T04:56:38.300Z,7.74
2023-04-13T04:59:05.806Z,7.90
2023-04-13T05:01:43.504Z,8.03
2023-04-13T05:04:13.118Z,8.02
2023-04-13T05:06:43.321Z,8.12
2023-04-13T05:09:15.216Z,8.18
2023-04-13T05:11:48.018Z,8.41
2023-04-13T05:14:16.131Z,8.52
2023-04-13T05:16:45.747Z,8.64
2023-04-13T05:19:37.111Z,8.78
2023-04-13T05:22:13.669Z,8.94
2023-04-13T05:24:47.322Z,9.13
2023-04-13T05:27:16.113Z,9.28
2023-04-13T05:29:44.556Z,9.42
2023-04-13T05:32:15.620Z,9.56
2023-04-13T05:34:43.399Z,9.74
2023-04-13T05:37:20.372Z,9.92
2023-04-13T05:39:47.506Z,10.38
2023-04-13T05:42:19.104Z,10.36
2023-04-13T05:44:47.199Z,10.50
2023-04-13T05:47:18.347Z,11.24
2023-04-13T05:49:47.077Z,11.23
2023-04-13T05:52:15.665Z,11.37
2023-04-13T05:54:46.383Z,11.25
2023-04-13T05:57:13.348Z,11.08
2023-04-13T05:59:46.058Z,11.29
2023-04-13T06:02:15.259Z,11.25
2023-04-13T06:04:43.307Z,11.21
2023-04-13T06:07:11.119Z,11.29
2023-04-13T06:09:40.141Z,11.30
2023-04-13T06:12:07.972Z,11.30
2023-04-13T06:14:35.011Z,11.38
2023-04-13T06:17:01.970Z,11.56
2023-04-13T06:19:29.298Z,11.77
2023-04-13T06:21:56.373Z,11.96
2023-04-13T06:24:23.665Z,11.99
2023-04-13T06:26:51.340Z,11.88
2023-04-13T06:29:18.602Z,11.89
2023-04-13T06:31:56.588Z,12.06
2023-04-13T06:34:23.594Z,12.21
2023-04-13T06:36:50.602Z,12.39
2023-04-13T06:39:19.591Z,12.64
2023-04-13T06:41:55.006Z,12.92
2023-04-13T06:44:42.992Z,12.84
2023-04-13T06:47:10.553Z,12.88
2023-04-13T06:49:37.594Z,13.15
2023-04-13T06:52:05.216Z,13.35
2023-04-13T06:54:32.343Z,13.19
2023-04-13T06:57:05.470Z,13.53
2023-04-13T06:59:33.196Z,13.25
2023-04-13T07:02:00.313Z,13.46
2023-04-13T07:04:29.702Z,13.36
2023-04-13T07:06:58.889Z,13.38
2023-04-13T07:09:26.226Z,14.00
2023-04-13T07:11:53.410Z,13.98
2023-04-13T07:14:21.185Z,14.28
2023-04-13T07:16:48.642Z,14.32
2023-04-13T07:19:17.000Z,14.32
2023-04-13T07:21:44.114Z,14.43
2023-04-13T07:24:11.238Z,14.62
2023-04-13T07:26:41.920Z,15.12
2023-04-13T07:29:13.503Z,15.12
2023-04-13T07:31:44.642Z,15.16
2023-04-13T07:34:12.348Z,15.92
2023-04-13T07:36:44.372Z,15.73
2023-04-13T07:39:15.064Z,15.80
2023-04-13T07:41:46.571Z,15.81
2023-04-13T07:44:17.890Z,16.43
2023-04-13T07:46:47.480Z,16.68
2023-04-13T07:49:15.022Z,16.40
2023-04-13T07:51:43.094Z,16.25
2023-04-13T07:54:10.573Z,16.21
2023-04-13T07:56:37.892Z,16.23
2023-04-13T07:59:07.112Z,16.56
2023-04-13T08:01:35.618Z,16.88
2023-04-13T08:04:03.704Z,16.97
2023-04-13T08:06:32.233Z,17.06
2023-04-13T08:09:01.680Z,17.01
2023-04-13T08:11:28.701Z,17.16
2023-04-13T08:14:02.627Z,17.07
2023-04-13T08:16:34.391Z,17.35
2023-04-13T08:19:04.250Z,17.98
2023-04-13T08:21:37.455Z,18.12
2023-04-13T08:24:08.031Z,17.93
2023-04-13T08:26:35.245Z,18.08
2023-04-13T08:29:02.413Z,18.28
2023-04-13T08:31:29.734Z,18.50
2023-04-13T08:34:01.532Z,18.94
2023-04-13T08:36:31.906Z,18.97
2023-04-13T08:39:06.049Z,19.04
2023-04-13T08:41:41.935Z,19.17
2023-04-13T08:44:13.575Z,19.26
2023-04-13T08:46:47.382Z,18.69
2023-04-13T08:49:18.755Z,18.88
2023-04-13T08:52:11.046Z,18.87
2023-04-13T08:54:40.492Z,18.94
2023-04-13T08:57:16.409Z,18.84
2023-04-13T08:59:44.918Z,18.89
2023-04-13T09:02:15.162Z,19.31
2023-04-13T09:04:56.003Z,19.26
2023-04-13T09:07:29.602Z,19.29
2023-04-13T09:10:01.687Z,19.34
2023-04-13T09:12:33.588Z,19.43
2023-04-13T09:15:00.774Z,19.49
2023-04-13T09:17:32.582Z,19.57
2023-04-13T09:20:18.388Z,19.68
2023-04-13T09:22:45.821Z,19.75
2023-04-13T09:25:29.365Z,20.31
2023-04-13T09:27:57.257Z,20.33
2023-04-13T09:30:29.937Z,20.59
2023-04-13T09:33:06.041Z,20.93
2023-04-13T09:35:34.390Z,21.03
2023-04-13T09:38:01.506Z,21.21
2023-04-13T09:40:29.423Z,21.42
2023-04-13T09:43:04.732Z,21.62
2023-04-13T09:45:36.414Z,21.83
2023-04-13T09:48:05.407Z,22.16
2023-04-13T09:50:34.868Z,22.00
2023-04-13T09:53:06.822Z,21.99
2023-04-13T09:55:37.192Z,22.59
2023-04-13T09:58:17.803Z,22.38
2023-04-13T10:00:46.652Z,21.96
2023-04-13T10:03:16.092Z,21.68
2023-04-13T10:05:58.968Z,21.63
2023-04-13T10:08:37.580Z,21.35
2023-04-13T10:11:12.819Z,21.76
2023-04-13T10:14:02.783Z,21.90
2023-04-13T10:17:05.647Z,22.31
2023-04-13T10:19:56.463Z,22.06
2023-04-13T10:22:25.023Z,21.61
2023-04-13T10:24:53.091Z,21.16
2023-04-13T10:29:50.077Z,21.89
2023-04-13T10:32:35.327Z,21.96
2023-04-13T10:35:11.844Z,22.19
2023-04-13T10:37:40.702Z,22.80
2023-04-13T10:40:10.457Z,23.01
2023-04-13T10:45:24.194Z,23.56
2023-04-13T10:47:51.584Z,23.35
2023-04-13T10:50:23.846Z,23.34
2023-04-13T10:53:07.473Z,23.63
2023-04-13T10:55:35.408Z,23.66
2023-04-13T10:58:14.567Z,23.36
2023-04-13T11:00:47.080Z,23.22
2023-04-13T11:03:17.015Z,23.49
2023-04-13T11:05:47.225Z,23.51
2023-04-13T11:08:21.665Z,23.92
2023-04-13T11:10:56.522Z,23.97
2023-04-13T11:13:31.964Z,24.49
2023-04-13T11:16:07.049Z,24.61
2023-04-13T11:18:34.136Z,24.92
2023-04-13T11:21:06.098Z,25.62
2023-04-13T11:23:36.305Z,25.21
2023-04-13T11:26:04.785Z,24.74
2023-04-13T11:28:43.628Z,24.61
2023-04-13T11:31:13.905Z,24.96
2023-04-13T11:33:41.163Z,24.71
2023-04-13T11:36:11.977Z,24.76
2023-04-13T11:38:43.083Z,24.78
2023-04-13T11:43:42.021Z,24.89
2023-04-13T11:46:13.717Z,24.84
2023-04-13T11:48:43.613Z,24.90
2023-04-13T11:51:11.559Z,25.21
2023-04-13T11:53:40.410Z,25.07
2023-04-13T11:56:09.936Z,25.09
2023-04-13T11:58:39.562Z,24.97
2023-04-13T12:01:25.121Z,25.07
2023-04-13T12:04:04.690Z,25.15
2023-04-13T12:06:45.947Z,25.64
2023-04-13T12:09:17.636Z,26.14
2023-04-13T12:11:52.135Z,26.43
2023-04-13T12:19:28.292Z,26.62
2023-04-13T12:21:58.091Z,26.61
2023-04-13T12:24:38.150Z,26.35
2023-04-13T12:29:40.551Z,26.21
2023-04-13T12:32:16.441Z,26.55
2023-04-13T12:34:44.866Z,26.67
2023-04-13T12:37:12.351Z,26.70
2023-04-13T12:39:39.576Z,26.86
2023-04-13T12:42:06.757Z,27.33
2023-04-13T12:44:34.558Z,27.48
2023-04-13T12:47:02.564Z,27.31
2023-04-13T12:49:31.145Z,27.24
2023-04-13T12:51:58.158Z,27.12
2023-04-13T12:54:30.843Z,27.32
2023-04-13T12:57:01.456Z,27.78
2023-04-13T12:59:31.264Z,27.84
2023-04-13T13:02:03.099Z,27.46
2023-04-13T13:04:33.025Z,27.36
2023-04-13T13:07:02.310Z,27.62
2023-04-13T13:09:31.204Z,27.83
2023-04-13T13:12:03.794Z,27.92
2023-04-13T13:14:33.262Z,28.19
2023-04-13T13:17:01.310Z,28.02
2023-04-13T13:19:33.658Z,28.03
2023-04-13T13:22:01.643Z,28.36
2023-04-13T13:24:29.111Z,28.68
2023-04-13T13:29:28.050Z,27.91
2023-04-13T13:31:57.843Z,27.77
2023-04-13T13:34:24.974Z,28.03
2023-04-13T13:36:51.893Z,28.39
2023-04-13T13:39:21.079Z,28.80
2023-04-13T13:41:48.281Z,29.16
2023-04-13T13:44:16.203Z,29.56
2023-04-13T13:46:43.676Z,29.31
2023-04-13T13:49:11.928Z,29.31
2023-04-13T13:51:51.387Z,29.36
2023-04-13T13:54:22.959Z,29.63
2023-04-13T13:56:50.056Z,29.92
2023-04-13T13:59:16.993Z,29.49
2023-04-13T14:01:44.777Z,29.39
2023-04-13T14:04:13.291Z,29.49
2023-04-13T14:06:40.442Z,29.50
2023-04-13T14:09:07.791Z,29.22
2023-04-13T14:11:34.947Z,29.14
2023-04-13T14:14:11.095Z,29.16
2023-04-13T14:16:48.619Z,28.84
2023-04-13T14:19:15.687Z,29.03
2023-04-13T14:21:42.807Z,29.47
2023-04-13T14:24:09.914Z,29.62
2023-04-13T14:26:38.311Z,29.74
2023-04-13T14:29:09.015Z,29.94
2023-04-13T14:31:39.113Z,29.81
2023-04-13T14:34:06.266Z,29.85
2023-04-13T14:36:33.251Z,29.94
2023-04-13T14:39:00.884Z,30.15
2023-04-13T14:41:28.061Z,30.56
2023-04-13T14:43:55.028Z,30.57
2023-04-13T14:46:22.393Z,30.58
2023-04-13T14:48:49.578Z,30.46
2023-04-13T14:51:17.542Z,30.29
2023-04-13T14:53:44.694Z,30.45
2023-04-13T14:56:11.775Z,30.57
2023-04-13T14:58:38.882Z,30.81
2023-04-13T15:01:17.602Z,30.86
2023-04-13T15:03:47.821Z,30.73
2023-04-13T15:06:17.655Z,30.91
2023-04-13T15:08:45.428Z,31.33
2023-04-13T15:11:12.463Z,31.75
2023-04-13T15:13:39.534Z,32.02
2023-04-13T15:16:07.958Z,32.05
2023-04-13T15:18:35.506Z,31.96
2023-04-13T15:21:04.114Z,31.90
2023-04-13T15:23:32.504Z,31.71
2023-04-13T15:26:01.226Z,31.71
2023-04-13T15:28:28.305Z,31.59
2023-04-13T15:30:55.351Z,31.61
2023-04-13T15:33:22.470Z,31.93
2023-04-13T15:35:51.954Z,31.95
2023-04-13T15:38:18.972Z,31.90
2023-04-13T15:40:47.274Z,31.64
2023-04-13T15:43:14.360Z,31.56
2023-04-13T15:45:41.407Z,31.48
2023-04-13T15:48:08.560Z,31.35
2023-04-13T15:50:35.712Z,31.31
2023-04-13T15:53:02.766Z,31.18
2023-04-13T15:55:29.877Z,30.86
2023-04-13T15:57:57.368Z,30.51
2023-04-13T16:00:26.213Z,30.22
2023-04-13T16:02:53.472Z,29.87
2023-04-13T16:05:21.087Z,29.71
2023-04-13T16:07:48.489Z,29.62
2023-04-13T16:10:16.893Z,29.26
2023-04-13T16:12:44.807Z,28.83
2023-04-13T16:15:12.692Z,28.33
2023-04-13T16:17:43.876Z,27.53
2023-04-13T16:20:14.335Z,26.66
2023-04-13T16:22:43.468Z,26.05
2023-04-13T16:25:11.765Z,25.63
2023-04-13T16:27:39.852Z,25.10
2023-04-13T16:30:13.365Z,24.81
2023-04-13T16:32:47.100Z,24.31
2023-04-13T16:35:14.336Z,24.03
2023-04-13T16:37:42.906Z,23.92
2023-04-13T16:40:11.479Z,23.73
2023-04-13T16:42:40.469Z,23.53
2023-04-13T16:45:14.385Z,23.31
2023-04-13T16:47:42.573Z,23.14
2023-04-13T16:50:13.738Z,22.92
2023-04-13T16:52:40.949Z,22.57
2023-04-13T16:55:11.575Z,22.24
2023-04-13T16:57:38.645Z,22.10
2023-04-13T17:00:15.591Z,21.92
2023-04-13T17:02:43.120Z,21.83
2023-04-13T17:05:11.656Z,21.66
2023-04-13T17:07:40.588Z,21.41
2023-04-13T17:10:09.220Z,21.28
2023-04-13T17:12:39.216Z,21.08
2023-04-13T17:15:28.809Z,20.85
2023-04-13T17:17:56.064Z,20.73
2023-04-13T17:20:23.329Z,20.60
2023-04-13T17:22:51.276Z,20.43
2023-04-13T17:25:20.580Z,20.39
2023-04-13T17:27:48.206Z,20.12
2023-04-13T17:30:15.330Z,20.00
2023-04-13T17:32:42.905Z,20.09
2023-04-13T17:35:10.591Z,19.89
2023-04-13T17:37:37.725Z,19.77
2023-04-13T17:40:06.911Z,19.63
2023-04-13T17:42:33.959Z,19.50
2023-04-13T17:45:01.736Z,19.36
2023-04-13T17:47:29.781Z,19.17
2023-04-13T17:49:56.861Z,19.04
2023-04-13T17:52:24.908Z,19.04
2023-04-13T17:54:51.902Z,18.91
2023-04-13T17:57:19.402Z,18.80
2023-04-13T17:59:47.294Z,18.66
2023-04-13T18:02:14.961Z,18.63
2023-04-13T18:04:42.622Z,18.60
2023-04-13T18:07:09.673Z,18.52
2023-04-13T18:09:57.680Z,18.39
2023-04-13T18:12:44.605Z,18.32
2023-04-13T18:15:13.310Z,18.24
2023-04-13T18:17:41.701Z,18.26
2023-04-13T18:20:09.474Z,18.13
2023-04-13T18:22:36.965Z,18.10
2023-04-13T18:25:07.770Z,18.00
2023-04-13T18:27:36.269Z,17.91
2023-04-13T18:30:06.298Z,17.80
2023-04-13T18:32:33.373Z,17.53
2023-04-13T18:35:00.714Z,17.48
2023-04-13T18:37:27.737Z,17.42
2023-04-13T18:39:57.575Z,17.38
2023-04-13T18:42:25.763Z,17.43
2023-04-13T18:44:52.786Z,17.50
2023-04-13T18:47:23.895Z,17.31
2023-04-13T18:49:51.519Z,17.30
2023-04-13T18:52:18.799Z,17.01
2023-04-13T18:54:45.876Z,16.99
2023-04-13T18:57:13.405Z,16.95
2023-04-13T18:59:41.223Z,16.91
2023-04-13T19:02:08.528Z,16.86
2023-04-13T19:04:37.260Z,16.89
2023-04-13T19:07:08.671Z,16.71
2023-04-13T19:09:39.362Z,16.72
2023-04-13T19:12:07.677Z,16.57
2023-04-13T19:14:40.216Z,16.69
2023-04-13T19:17:07.389Z,16.63
2023-04-13T19:19:34.857Z,16.56
2023-04-13T19:22:03.355Z,16.60
2023-04-13T19:24:30.685Z,16.51
2023-04-13T19:26:57.786Z,16.46
2023-04-13T19:29:30.674Z,16.41
2023-04-13T19:31:58.401Z,16.41
2023-04-13T19:34:26.336Z,16.33
2023-04-13T19:36:59.787Z,16.28
2023-04-13T19:39:27.405Z,16.15
2023-04-13T19:41:57.921Z,16.11
2023-04-13T19:44:25.057Z,16.06
2023-04-13T19:46:53.869Z,16.09
2023-04-13T19:49:21.643Z,15.98
2023-04-13T19:51:50.178Z,15.95
2023-04-13T19:54:17.393Z,15.88
2023-04-13T19:56:46.384Z,15.77
2023-04-13T19:59:15.159Z,15.71
2023-04-13T20:01:47.210Z,15.78
2023-04-13T20:04:15.669Z,15.68
2023-04-13T20:06:50.233Z,15.66
2023-04-13T20:09:18.517Z,15.55
2023-04-13T20:11:46.772Z,15.56
2023-04-13T20:14:16.813Z,15.53
2023-04-13T20:16:45.942Z,15.50
2023-04-13T20:19:16.353Z,15.44
2023-04-13T20:21:46.696Z,15.49
2023-04-13T20:24:20.036Z,15.48
2023-04-13T20:26:58.900Z,15.40
2023-04-13T20:29:40.762Z,15.31
2023-04-13T20:32:36.248Z,15.30
2023-04-13T20:35:06.705Z,15.28
2023-04-13T20:37:40.426Z,15.34
2023-04-13T20:40:13.682Z,15.29
2023-04-13T20:42:45.644Z,15.23
2023-04-13T20:45:15.844Z,15.13
2023-04-13T20:47:42.944Z,15.23
2023-04-13T20:50:13.155Z,15.60
2023-04-13T20:52:43.297Z,15.19
2023-04-13T20:55:19.312Z,14.61
2023-04-13T20:58:17.223Z,14.17
2023-04-13T21:00:56.380Z,14.14
2023-04-13T21:03:23.899Z,14.08
2023-04-13T21:05:52.765Z,14.18
2023-04-13T21:08:21.153Z,14.27
2023-04-13T21:10:48.130Z,13.99
2023-04-13T21:13:16.285Z,13.92
2023-04-13T21:15:44.260Z,13.89
2023-04-13T21:18:11.604Z,13.98
2023-04-13T21:20:40.872Z,14.09
2023-04-13T21:23:08.286Z,14.29
2023-04-13T21:25:37.373Z,13.96
2023-04-13T21:28:04.833Z,13.91
2023-04-13T21:30:31.931Z,13.86
2023-04-13T21:32:59.514Z,13.99
2023-04-13T21:35:26.473Z,14.04
2023-04-13T21:37:54.642Z,13.99
2023-04-13T21:40:24.810Z,13.80
2023-04-13T21:42:51.930Z,13.63
2023-04-13T21:45:19.158Z,13.76
2023-04-13T21:47:47.178Z,13.88
2023-04-13T21:50:14.316Z,13.84
2023-04-13T21:52:41.868Z,13.55
2023-04-13T21:55:14.744Z,13.52
2023-04-13T21:57:41.660Z,13.41
2023-04-13T22:00:09.433Z,13.40
2023-04-13T22:02:39.366Z,13.54
2023-04-13T22:05:09.289Z,13.58
2023-04-13T22:07:42.924Z,13.55
2023-04-13T22:10:11.532Z,13.52
2023-04-13T22:12:38.711Z,13.51
2023-04-13T22:15:06.562Z,13.51
2023-04-13T22:17:33.580Z,13.50
2023-04-13T22:20:00.729Z,13.69
2023-04-13T22:22:27.785Z,13.44
2023-04-13T22:24:54.970Z,13.29
2023-04-13T22:27:22.242Z,13.23
2023-04-13T22:29:49.240Z,13.43
2023-04-13T22:32:16.793Z,13.47
2023-04-13T22:34:43.816Z,13.55
2023-04-13T22:37:12.306Z,13.44
2023-04-13T22:39:40.064Z,13.28
2023-04-13T22:42:06.999Z,13.31
2023-04-13T22:44:36.857Z,13.21
2023-04-13T22:47:04.638Z,13.15
2023-04-13T22:49:31.745Z,13.13
2023-04-13T22:52:00.297Z,13.24
2023-04-13T22:54:27.365Z,13.28
2023-04-13T22:56:54.311Z,13.30
2023-04-13T22:59:21.310Z,13.30
2023-04-13T23:01:48.342Z,13.20
2023-04-13T23:04:16.281Z,13.23
2023-04-13T23:06:43.550Z,13.24
2023-04-13T23:09:10.516Z,13.16
2023-04-13T23:11:37.863Z,13.17
2023-04-13T23:14:06.735Z,13.15
2023-04-13T23:16:34.545Z,13.01
2023-04-13T23:19:01.872Z,12.94
2023-04-13T23:21:29.308Z,12.88
2023-04-13T23:23:56.189Z,12.93
2023-04-13T23:26:23.308Z,12.92
2023-04-13T23:28:50.336Z,12.87
2023-04-13T23:31:17.417Z,12.82
2023-04-13T23:33:44.407Z,12.80
2023-04-13T23:36:11.760Z,12.79
2023-04-13T23:38:38.898Z,12.90
2023-04-13T23:41:05.938Z,12.77
2023-04-13T23:43:32.960Z,12.75
2023-04-13T23:46:00.034Z,12.69
2023-04-13T23:48:29.224Z,12.62
2023-04-13T23:50:57.334Z,12.59
2023-04-13T23:53:24.735Z,12.56
2023-04-13T23:55:52.242Z,12.53
2023-04-13T23:58:19.194Z,12.48
